Air Park, Nebraska
Current Conditions -  °F | °C
As of 4:54 AM on Monday 22 Dec 2014 (Local Time) from KLNK Reporting Station
Light Rain Light Rain  
Wind Chill: 36°   Ceiling: 500
Heat Index: 43°   Visibility: 5mi
Dew Point: 42°   Wind: 13mph
Humidity: 97%   Direction: 170°S
Pressure: 29.53"   Gusts: NA
Location:  40.8731°N, 96.8015°W
Report Text: KLNK 221054Z AUTO 17011KT 5SM -RA BR OVC005 06/06 A2953 RMK AO2 SLP005 P0001 T00610056
Loading
Personal Weather Stations






























Interactive Weather Map New forecast layout! Learn more

10-Day Weather Forecast

Advertisements
Track Severe Weather on mobile